Time;durP1;ratioP1;P1;durP2;ratioP2;P2;SDS_P1;SDS_P2;PMS_P1;PMS_P2;Temp;Humidity;BMP_temperature;BMP_pressure;BME280_temperature;BME280_humidity;BME280_pressure;Samples;Min_cycle;Max_cycle;Signal;HPM_P1;HPM_P2
2024/03/17 00:01:05;;;;;;;19.98;14.23;;;;;;;16.71;100.00;101668.06;143749;590;47002;-69
2024/03/17 00:03:32;;;;;;;14.52;12.27;;;;;;;16.74;100.00;101670.34;143726;590;47008;-68
2024/03/17 00:05:59;;;;;;;16.17;11.73;;;;;;;16.65;100.00;101657.03;143724;590;47004;-69
2024/03/17 00:08:26;;;;;;;16.65;12.00;;;;;;;16.66;100.00;101666.84;143726;642;47006;-68
2024/03/17 00:10:56;;;;;;;17.80;11.32;;;;;;;16.64;100.00;101671.66;143729;576;46006;-68
2024/03/17 00:13:23;;;;;;;13.13;11.10;;;;;;;16.67;100.00;101660.37;143722;621;48919;-68
2024/03/17 00:15:50;;;;;;;13.85;9.95;;;;;;;16.63;100.00;101656.44;143723;587;47005;-67
2024/03/17 00:18:17;;;;;;;13.65;11.12;;;;;;;16.62;100.00;101657.47;143723;576;47006;-68
2024/03/17 00:20:43;;;;;;;13.35;11.15;;;;;;;16.58;100.00;101653.53;143725;588;47002;-68
2024/03/17 00:23:11;;;;;;;14.40;11.02;;;;;;;16.57;100.00;101659.16;143723;647;47010;-69
2024/03/17 00:25:39;;;;;;;17.87;11.30;;;;;;;16.58;100.00;101652.69;143723;596;47004;-68
2024/03/17 00:28:06;;;;;;;14.38;10.57;;;;;;;16.58;100.00;101658.94;143725;597;47006;-68
2024/03/17 00:30:32;;;;;;;12.80;9.48;;;;;;;16.56;100.00;101657.50;143725;610;47004;-68
2024/03/17 00:32:59;;;;;;;12.00;9.35;;;;;;;16.54;100.00;101665.03;143723;581;47010;-68
2024/03/17 00:35:25;;;;;;;11.60;9.30;;;;;;;16.50;100.00;101656.50;143723;573;47004;-69
2024/03/17 00:37:53;;;;;;;11.12;8.20;;;;;;;16.50;100.00;101656.50;143725;568;46007;-68
2024/03/17 00:40:19;;;;;;;10.82;8.50;;;;;;;16.50;100.00;101660.03;143725;604;47002;-68
2024/03/17 00:42:46;;;;;;;14.98;9.88;;;;;;;16.48;100.00;101664.00;143723;612;47919;-69
2024/03/17 00:45:12;;;;;;;11.12;9.38;;;;;;;16.45;100.00;101662.53;143724;589;47004;-68
2024/03/17 00:47:39;;;;;;;12.35;8.48;;;;;;;16.42;100.00;101665.66;143725;569;46006;-68
2024/03/17 00:50:08;;;;;;;10.82;8.85;;;;;;;16.42;100.00;101654.00;143725;580;47002;-68
2024/03/17 00:52:34;;;;;;;13.32;8.82;;;;;;;16.39;100.00;101649.84;143727;586;47008;-68
2024/03/17 00:55:01;;;;;;;11.25;9.32;;;;;;;16.37;100.00;101657.37;143723;570;47002;-68
2024/03/17 00:57:27;;;;;;;13.98;9.43;;;;;;;16.37;100.00;101658.19;143725;660;47006;-68
2024/03/17 00:59:54;;;;;;;12.45;9.55;;;;;;;16.38;100.00;101648.19;143724;592;47004;-68
2024/03/17 01:02:21;;;;;;;12.82;8.73;;;;;;;16.35;100.00;101651.31;143726;582;47008;-68
2024/03/17 01:04:48;;;;;;;14.45;9.20;;;;;;;16.32;100.00;101647.19;143722;596;47004;-69
2024/03/17 01:07:14;;;;;;;10.15;8.75;;;;;;;16.32;100.00;101655.31;143722;576;47006;-68
2024/03/17 01:09:40;;;;;;;11.18;8.43;;;;;;;16.26;100.00;101647.16;143724;589;47004;-68
2024/03/17 01:12:07;;;;;;;11.80;9.35;;;;;;;16.21;100.00;101651.38;143726;603;46919;-68
2024/03/17 01:14:33;;;;;;;11.98;8.52;;;;;;;16.24;100.00;101652.81;143725;590;47005;-69
2024/03/17 01:17:01;;;;;;;11.75;9.15;;;;;;;16.22;100.00;101649.50;143728;624;46006;-68
2024/03/17 01:19:27;;;;;;;12.70;10.07;;;;;;;16.21;100.00;101650.53;143726;566;47004;-68
2024/03/17 01:21:54;;;;;;;10.90;9.35;;;;;;;16.24;100.00;101643.87;143723;576;47010;-68
2024/03/17 01:24:20;;;;;;;11.77;8.13;;;;;;;16.31;100.00;101653.66;143723;591;47004;-69
2024/03/17 01:26:47;;;;;;;9.77;8.15;;;;;;;16.33;100.00;101648.81;143725;604;47006;-69
2024/03/17 01:29:13;;;;;;;8.45;7.07;;;;;;;16.25;100.00;101645.50;143726;583;47002;-68
2024/03/17 01:31:39;;;;;;;9.13;7.12;;;;;;;16.19;100.00;101658.88;143726;622;46008;-68
2024/03/17 01:34:06;;;;;;;9.85;8.32;;;;;;;16.15;100.00;101645.97;143723;600;47004;-68
2024/03/17 01:36:32;;;;;;;10.88;8.15;;;;;;;16.13;100.00;101643.47;143726;578;46019;-68
2024/03/17 01:38:59;;;;;;;14.10;10.05;;;;;;;16.13;100.00;101656.19;143724;573;47002;-68
2024/03/17 01:41:26;;;;;;;13.95;9.70;;;;;;;16.13;100.00;101658.91;143724;584;47008;-69
2024/03/17 01:43:52;;;;;;;14.27;9.88;;;;;;;16.14;100.00;101647.03;143722;628;47004;-68
2024/03/17 01:46:19;;;;;;;11.07;8.70;;;;;;;16.10;100.00;101654.72;143727;567;46007;-69
2024/03/17 01:48:46;;;;;;;13.90;8.75;;;;;;;16.06;100.00;101651.63;143726;584;47002;-68
2024/03/17 01:51:15;;;;;;;11.15;7.57;;;;;;;16.01;100.00;101647.88;143724;588;47010;-68
2024/03/17 01:53:42;;;;;;;8.15;6.85;;;;;;;15.95;100.00;101654.13;143723;586;47004;-69
2024/03/17 01:56:11;;;;;;;10.45;7.30;;;;;;;15.94;100.00;101656.03;143726;575;46006;-69
2024/03/17 01:58:38;;;;;;;10.27;6.78;;;;;;;15.91;100.00;101656.44;143724;567;47004;-69
2024/03/17 04:01:33;;;;;;;8.70;7.80;;;;;;;15.73;100.00;101657.91;143715;597;50010;-69
2024/03/17 04:03:59;;;;;;;8.27;7.43;;;;;;;15.77;100.00;101661.00;143731;663;47006;-68
2024/03/17 04:06:26;;;;;;;10.90;8.45;;;;;;;15.76;100.00;101662.91;143731;613;47008;-68
2024/03/17 04:08:52;;;;;;;10.30;8.18;;;;;;;15.84;100.00;101666.41;143731;663;47006;-68
2024/03/17 04:11:19;;;;;;;9.43;6.95;;;;;;;15.85;100.00;101666.25;143722;663;47010;-68
2024/03/17 04:13:47;;;;;;;7.32;6.45;;;;;;;15.87;100.00;101674.16;143734;616;46011;-68
2024/03/17 04:16:13;;;;;;;9.30;6.70;;;;;;;15.80;100.00;101671.44;143730;646;47008;-69
2024/03/17 04:18:41;;;;;;;8.00;6.82;;;;;;;15.79;100.00;101679.78;143735;580;46012;-69
2024/03/17 04:21:07;;;;;;;8.57;7.03;;;;;;;15.74;100.00;101678.53;143732;567;46925;-69
2024/03/17 04:23:34;;;;;;;9.40;7.15;;;;;;;15.74;100.00;101678.53;143728;569;47006;-69
2024/03/17 04:26:03;;;;;;;12.27;7.93;;;;;;;15.77;100.00;101672.69;143729;649;47008;-68
2024/03/17 04:28:29;;;;;;;8.77;7.20;;;;;;;15.66;100.00;101677.91;143729;616;47006;-69
2024/03/17 04:31:14;;;;;;;8.88;7.05;;;;;;;15.60;100.00;101679.59;143729;639;47010;-68
2024/03/17 04:33:41;;;;;;;11.40;6.87;;;;;;;15.60;100.00;101687.72;143728;602;47006;-69
2024/03/17 04:36:08;;;;;;;9.73;6.75;;;;;;;15.66;100.00;101680.63;143731;585;46022;-68
2024/03/17 04:38:35;;;;;;;12.18;7.62;;;;;;;15.70;100.00;101687.28;143729;599;47006;-68
2024/03/17 04:41:09;;;;;;;8.75;7.72;;;;;;;15.72;100.00;101688.72;143730;574;47010;-68
2024/03/17 04:43:36;;;;;;;12.55;8.35;;;;;;;15.72;100.00;101688.72;143728;601;47006;-68
2024/03/17 04:46:07;;;;;;;11.35;8.07;;;;;;;15.77;100.00;101690.81;143727;635;47008;-69
2024/03/17 04:48:33;;;;;;;13.52;10.40;;;;;;;15.75;100.00;101690.19;143731;609;47006;-68
2024/03/17 04:51:00;;;;;;;10.65;8.18;;;;;;;15.80;100.00;101689.53;143729;584;47012;-68
2024/03/17 04:53:27;;;;;;;13.30;8.93;;;;;;;15.81;100.00;101694.78;143727;609;47006;-69
2024/03/17 04:56:04;;;;;;;10.63;9.00;;;;;;;15.87;100.00;101693.97;143730;584;47008;-68
2024/03/17 04:58:32;;;;;;;13.70;8.65;;;;;;;15.86;100.00;101699.59;143732;572;47006;-68
2024/03/17 05:01:09;;;;;;;12.05;8.88;;;;;;;15.85;100.00;101698.75;143729;596;47012;-68
2024/03/17 05:03:36;;;;;;;10.35;8.65;;;;;;;15.86;100.00;101705.84;143721;576;47006;-68
2024/03/17 05:06:06;;;;;;;10.43;8.57;;;;;;;15.87;100.00;101712.94;143721;567;47008;-68
2024/03/17 05:08:37;;;;;;;17.35;10.25;;;;;;;15.88;100.00;101711.03;143721;596;47006;-68
2024/03/17 05:11:05;;;;;;;15.60;10.73;;;;;;;15.82;100.00;101701.00;143722;574;47012;-68
2024/03/17 05:13:33;;;;;;;12.70;10.68;;;;;;;15.85;100.00;101704.19;143724;602;46010;-68
2024/03/17 05:16:01;;;;;;;13.05;10.38;;;;;;;15.88;100.00;101705.63;143723;617;46008;-68
2024/03/17 05:18:27;;;;;;;13.15;10.45;;;;;;;15.89;100.00;101710.81;143723;578;47004;-68
2024/03/17 05:21:00;;;;;;;17.15;10.55;;;;;;;15.92;100.00;101706.88;143718;569;47011;-68
2024/03/17 05:23:28;;;;;;;13.38;9.05;;;;;;;15.94;100.00;101712.06;143725;646;46025;-68
2024/03/17 05:25:55;;;;;;;12.20;8.80;;;;;;;15.89;100.00;101710.81;143723;602;47008;-69
2024/03/17 05:28:23;;;;;;;12.80;9.20;;;;;;;15.86;100.00;101707.72;143724;589;47006;-69
2024/03/17 05:30:50;;;;;;;14.65;10.63;;;;;;;15.87;100.00;101707.53;143721;583;47013;-69
2024/03/17 05:33:23;;;;;;;12.43;9.60;;;;;;;15.89;100.00;101715.44;143720;574;47006;-68
2024/03/17 05:35:55;;;;;;;11.85;8.98;;;;;;;15.96;100.00;101716.25;143723;599;47009;-69
2024/03/17 05:38:24;;;;;;;11.63;9.43;;;;;;;15.99;100.00;101715.00;143722;581;47004;-68
2024/03/17 05:41:00;;;;;;;11.88;8.63;;;;;;;15.97;100.00;101719.78;143721;566;47010;-68
2024/03/17 05:43:35;;;;;;;11.35;9.15;;;;;;;16.06;100.00;101719.38;143723;618;47004;-68
2024/03/17 05:46:03;;;;;;;13.38;8.48;;;;;;;16.12;100.00;101723.09;143722;595;47008;-68
2024/03/17 05:48:30;;;;;;;10.88;8.38;;;;;;;16.22;100.00;101719.97;143722;582;47004;-67
2024/03/17 05:50:56;;;;;;;15.98;8.20;;;;;;;16.21;100.00;101721.84;143722;624;46925;-69
2024/03/17 05:53:24;;;;;;;12.02;7.55;;;;;;;16.26;100.00;101729.34;143721;603;47006;-69
2024/03/17 05:55:51;;;;;;;8.75;7.53;;;;;;;16.26;100.00;101729.34;143724;599;47008;-69
2024/03/17 05:58:17;;;;;;;13.98;9.05;;;;;;;16.30;100.00;101729.75;143723;612;47004;-69
2024/03/17 06:00:44;;;;;;;14.02;9.55;;;;;;;16.34;100.00;101734.53;143721;577;47010;-68
2024/03/17 06:03:10;;;;;;;19.33;9.55;;;;;;;16.39;100.00;101735.78;143722;633;47006;-68
2024/03/17 06:05:38;;;;;;;14.32;8.60;;;;;;;16.44;100.00;101739.50;143722;577;47009;-68
2024/03/17 06:08:08;;;;;;;10.63;8.80;;;;;;;16.45;100.00;101738.47;143723;607;47004;-68
2024/03/17 06:10:36;;;;;;;10.63;9.52;;;;;;;16.49;100.00;101739.72;143722;584;47010;-68
2024/03/17 06:13:03;;;;;;;12.95;10.27;;;;;;;16.58;100.00;101747.63;143722;615;47010;-68
2024/03/17 06:15:30;;;;;;;10.25;9.05;;;;;;;16.57;100.00;101752.19;143722;629;47008;-68
2024/03/17 06:17:56;;;;;;;10.98;9.45;;;;;;;16.69;100.00;101738.81;143724;621;47004;-68
2024/03/17 06:20:26;;;;;;;12.30;9.52;;;;;;;16.80;100.00;101745.44;143723;594;47011;-68
2024/03/17 06:22:53;;;;;;;11.25;8.43;;;;;;;16.83;100.00;101747.75;143721;597;47006;-69
2024/03/17 06:25:23;;;;;;;10.45;7.68;;;;;;;16.91;100.00;101743.94;143725;628;47008;-68
2024/03/17 06:27:51;;;;;;;14.10;8.15;;;;;;;16.97;100.00;101738.50;143724;609;47006;-69
2024/03/17 06:30:17;;;;;;;12.35;8.77;;;;;;;17.02;100.00;101745.19;143725;586;47010;-68
2024/03/17 06:32:45;;;;;;;9.50;8.57;;;;;;;17.04;100.00;101737.63;143724;585;46955;-68
2024/03/17 06:35:15;;;;;;;8.90;7.62;;;;;;;17.09;100.00;101748.69;143721;573;47009;-68
2024/03/17 06:37:45;;;;;;;10.57;8.75;;;;;;;17.13;100.00;101744.47;143725;618;47004;-68
2024/03/17 06:40:15;;;;;;;8.90;7.95;;;;;;;17.19;100.00;101751.78;143722;580;47012;-68
2024/03/17 06:42:46;;;;;;;7.97;7.18;;;;;;;17.27;100.00;101754.22;143723;606;47011;-68
2024/03/17 06:45:12;;;;;;;9.02;7.50;;;;;;;17.39;100.00;101765.22;143725;618;46008;-68
2024/03/17 06:47:39;;;;;;;9.52;7.90;;;;;;;17.47;100.00;101760.59;143721;575;47006;-68
2024/03/17 06:50:09;;;;;;;8.95;8.00;;;;;;;17.58;100.00;101754.44;143722;572;47012;-68
2024/03/17 06:52:36;;;;;;;11.18;8.68;;;;;;;17.68;100.00;101759.37;143720;689;47006;-68
2024/03/17 06:55:03;;;;;;;11.75;9.50;;;;;;;17.74;100.00;101769.34;143724;608;47009;-68
2024/03/17 06:57:29;;;;;;;15.00;10.32;;;;;;;17.81;100.00;101763.88;143723;605;47004;-68
2024/03/17 06:59:56;;;;;;;17.98;11.20;;;;;;;17.85;100.00;101765.09;143721;627;47012;-69
2024/03/17 07:02:22;;;;;;;20.00;12.02;;;;;;;17.90;100.00;101762.53;143719;597;47006;-68
2024/03/17 07:04:49;;;;;;;14.45;10.95;;;;;;;17.97;100.00;101760.59;143721;574;47009;-68
2024/03/17 07:07:15;;;;;;;15.93;12.30;;;;;;;18.02;100.00;101768.94;143724;605;47006;-68
2024/03/17 07:09:42;;;;;;;16.33;10.30;;;;;;;18.08;100.00;101756.38;143721;588;47010;-68
2024/03/17 07:12:09;;;;;;;14.77;10.90;;;;;;;18.24;100.00;101763.09;143722;602;47006;-68
2024/03/17 07:14:36;;;;;;;15.27;11.18;;;;;;;18.36;100.00;101765.06;143723;567;47008;-68
2024/03/17 07:17:04;;;;;;;14.65;11.55;;;;;;;18.45;100.00;101764.53;143723;637;47006;-68
2024/03/17 07:19:31;;;;;;;18.20;13.27;;;;;;;18.46;100.00;101760.78;143722;575;47011;-68
2024/03/17 07:21:57;;;;;;;14.20;12.55;;;;;;;18.41;100.00;101755.19;143723;626;47006;-68
2024/03/17 07:24:24;;;;;;;21.30;13.30;;;;;;;18.45;100.00;101763.72;143723;608;46008;-67
2024/03/17 07:26:50;;;;;;;16.62;13.57;;;;;;;18.56;100.00;101760.25;143722;596;47006;-68
2024/03/17 07:29:19;;;;;;;16.17;12.00;;;;;;;18.59;100.00;101748.09;143723;582;47012;-68
2024/03/17 07:31:45;;;;;;;18.33;12.37;;;;;;;18.62;100.00;101753.91;143719;591;47006;-68
2024/03/17 07:34:12;;;;;;;14.80;10.73;;;;;;;18.74;100.00;101750.41;143721;599;47008;-68
2024/03/17 07:36:39;;;;;;;13.77;9.95;;;;;;;18.81;100.00;101755.78;143721;598;47006;-69
2024/03/17 07:39:08;;;;;;;12.68;9.23;;;;;;;18.76;100.00;101751.03;143724;576;47010;-69
2024/03/17 07:41:37;;;;;;;11.02;8.05;;;;;;;18.79;100.00;101750.56;143722;604;47004;-69
2024/03/17 07:44:04;;;;;;;12.75;8.57;;;;;;;18.97;100.00;101760.66;143724;596;46006;-68
2024/03/17 07:46:30;;;;;;;11.60;8.32;;;;;;;19.00;100.00;101753.91;143723;575;47008;-68
2024/03/17 07:48:56;;;;;;;11.30;7.93;;;;;;;18.97;100.00;101767.97;143723;586;47008;-68
2024/03/17 07:51:23;;;;;;;9.48;7.32;;;;;;;19.11;100.00;101763.19;143720;603;47004;-67
2024/03/17 07:53:49;;;;;;;11.98;8.35;;;;;;;19.21;100.00;101774.34;143725;588;46016;-67
2024/03/17 07:56:16;;;;;;;12.18;9.40;;;;;;;19.20;100.00;101765.34;143723;602;47003;-68
2024/03/17 07:58:44;;;;;;;14.18;10.48;;;;;;;19.15;100.00;101761.66;143722;666;47011;-69
2024/03/17 08:01:14;;;;;;;18.25;12.18;;;;;;;19.26;100.00;101754.56;143722;590;47004;-68
2024/03/17 08:03:44;;;;;;;16.02;12.98;;;;;;;19.29;100.00;101756.84;143723;591;47006;-68
2024/03/17 08:06:11;;;;;;;15.40;10.45;;;;;;;19.33;100.00;101758.87;143723;757;47004;-68
2024/03/17 08:08:37;;;;;;;14.25;11.18;;;;;;;19.37;100.00;101761.97;143723;717;46010;-67
2024/03/17 08:11:04;;;;;;;13.02;9.40;;;;;;;19.28;100.00;101761.47;143718;569;48013;-69
2024/03/17 08:13:34;;;;;;;13.43;9.70;;;;;;;19.12;100.00;101764.84;143721;802;47006;-68
2024/03/17 08:16:10;;;;;;;11.82;8.20;;;;;;;19.09;100.00;101763.41;143722;585;47004;-68
2024/03/17 08:18:37;;;;;;;8.60;6.95;;;;;;;19.23;100.00;101758.59;143723;608;47010;-68
2024/03/17 08:21:06;;;;;;;8.20;6.62;;;;;;;19.22;100.00;101749.63;143723;604;47002;-68
2024/03/17 08:23:33;;;;;;;10.35;7.72;;;;;;;19.12;100.00;101762.94;143724;634;46006;-67
2024/03/17 08:26:01;;;;;;;12.10;7.35;;;;;;;19.03;100.00;101765.16;143723;604;47002;-68
2024/03/17 08:28:28;;;;;;;11.95;7.00;;;;;;;19.02;100.00;101758.03;143723;568;47009;-69
2024/03/17 08:30:55;;;;;;;8.25;6.95;;;;;;;18.90;100.00;101757.12;143721;573;47004;-68
2024/03/17 08:33:23;;;;;;;8.75;7.12;;;;;;;18.84;100.00;101758.87;143723;578;46006;-68
2024/03/17 08:36:06;;;;;;;8.50;6.90;;;;;;;18.85;100.00;101757.81;143725;597;47004;-68
2024/03/17 08:38:34;;;;;;;6.95;6.18;;;;;;;18.90;100.00;101754.41;143722;602;47010;-68
2024/03/17 08:41:08;;;;;;;7.62;5.78;;;;;;;19.15;100.00;101748.06;143722;982;47004;-68
2024/03/17 08:43:35;;;;;;;;;;;;;;;19.25;100.00;101745.59;143727;985;47006;-68
2024/03/17 08:46:04;;;;;;;7.03;6.32;;;;;;;19.30;100.00;101753.06;143730;630;47000;-68
2024/03/17 08:48:33;;;;;;;6.80;6.15;;;;;;;19.37;100.00;101753.81;143725;577;46010;-68
2024/03/17 08:51:00;;;;;;;7.70;6.97;;;;;;;19.32;100.00;101757.22;143721;703;47004;-69
2024/03/17 08:53:28;;;;;;;8.80;7.90;;;;;;;19.21;100.00;101752.56;143724;601;46921;-68
2024/03/17 08:55:55;;;;;;;10.13;8.38;;;;;;;19.20;100.00;101754.47;143723;573;47003;-68
2024/03/17 08:58:22;;;;;;;9.32;6.90;;;;;;;19.41;100.00;101751.44;143721;583;47011;-68
2024/03/17 09:00:49;;;;;;;8.30;7.35;;;;;;;19.60;100.00;101749.47;143721;581;47004;-68
2024/03/17 09:03:16;;;;;;;8.43;6.40;;;;;;;19.80;100.00;101749.16;143722;739;47007;-69
2024/03/17 09:05:44;;;;;;;7.55;6.57;;;;;;;20.06;100.00;101747.03;143723;602;47004;-68
2024/03/17 09:08:21;;;;;;;7.03;6.32;;;;;;;20.04;100.00;101741.00;143723;587;47925;-67
2024/03/17 09:10:52;;;;;;;7.78;6.75;;;;;;;19.84;100.00;101742.97;143720;580;47929;-70
2024/03/17 09:13:26;;;;;;;7.37;5.95;;;;;;;19.85;100.00;101731.00;143724;783;47008;-68
2024/03/17 09:16:00;;;;;;;11.38;5.97;;;;;;;20.18;100.00;101727.94;143722;974;47004;-68
2024/03/17 09:18:27;;;;;;;6.93;5.65;;;;;;;19.92;100.00;101743.75;143722;577;47012;-68
2024/03/17 09:21:05;;;;;;;9.02;6.87;;;;;;;19.35;100.00;101748.56;143722;588;47006;-68
2024/03/17 09:23:36;;;;;;;6.90;6.20;;;;;;;19.12;100.00;101749.31;143723;596;47008;-67
2024/03/17 09:26:16;;;;;;;6.90;6.20;;;;;;;18.91;100.00;101747.91;143723;721;47006;-68
2024/03/17 09:28:42;;;;;;;7.07;6.32;;;;;;;18.81;100.00;101755.78;143724;981;46012;-68
2024/03/17 09:31:11;;;;;;;8.32;6.68;;;;;;;18.77;100.00;101750.81;143722;611;47006;-67
2024/03/17 09:33:40;;;;;;;11.48;7.62;;;;;;;18.82;100.00;101762.88;143722;580;48004;-71
2024/03/17 09:36:10;;;;;;;9.52;6.87;;;;;;;18.69;100.00;101759.25;143723;641;47006;-72
2024/03/17 09:38:38;;;;;;;8.07;7.20;;;;;;;18.59;100.00;101750.81;143723;715;46925;-71
2024/03/17 09:41:06;;;;;;;9.52;7.22;;;;;;;18.58;100.00;101757.31;143721;573;47006;-70
2024/03/17 09:43:34;;;;;;;10.07;7.57;;;;;;;18.52;100.00;101753.62;143724;598;46008;-70
2024/03/17 09:46:05;;;;;;;11.02;8.60;;;;;;;18.60;100.00;101760.66;143722;786;47006;-75
2024/03/17 09:48:32;;;;;;;9.98;8.02;;;;;;;18.61;100.00;101759.59;143722;619;48011;-74
2024/03/17 09:51:00;;;;;;;11.50;8.98;;;;;;;18.60;100.00;101766.91;143723;577;47004;-76
2024/03/17 09:53:34;;;;;;;12.57;8.77;;;;;;;18.52;100.00;101767.22;143721;592;47008;-75
2024/03/17 09:56:15;;;;;;;9.18;7.75;;;;;;;18.47;100.00;101777.94;143724;578;46008;-74
2024/03/17 09:58:43;;;;;;;13.70;8.63;;;;;;;18.37;100.00;101778.47;143723;598;47010;-72
2024/03/17 10:01:09;;;;;;;13.18;8.90;;;;;;;18.25;100.00;101780.25;143721;596;47006;-73
2024/03/17 10:03:46;;;;;;;11.00;8.07;;;;;;;18.25;100.00;101763.94;143725;600;46008;-75
2024/03/17 10:06:14;;;;;;;10.98;7.43;;;;;;;18.22;100.00;101769.81;143726;591;46008;-74
2024/03/17 10:09:09;;;;;;;10.20;7.78;;;;;;;18.18;100.00;101777.56;143723;566;47012;-74
2024/03/17 10:11:36;;;;;;;10.40;7.22;;;;;;;18.16;100.00;101766.13;143721;583;47006;-74
2024/03/17 10:14:05;;;;;;;12.85;9.52;;;;;;;18.25;100.00;101772.91;143722;572;47008;-76
2024/03/17 10:16:33;;;;;;;15.02;11.30;;;;;;;18.26;100.00;101785.47;143722;584;47004;-75
2024/03/17 10:19:28;;;;;;;12.73;10.98;;;;;;;18.21;100.00;101793.44;143722;573;47012;-75
2024/03/17 10:22:01;;;;;;;16.90;12.50;;;;;;;18.17;100.00;101792.25;143722;634;47006;-74
2024/03/17 10:24:28;;;;;;;17.67;13.43;;;;;;;18.14;100.00;101790.78;143722;844;47008;-75
2024/03/17 10:26:59;;;;;;;15.45;12.77;;;;;;;18.21;100.00;101792.63;143722;567;47006;-75
2024/03/17 10:29:35;;;;;;;13.15;9.65;;;;;;;18.18;100.00;101794.75;143725;592;47010;-75
2024/03/17 10:32:13;;;;;;;12.65;10.02;;;;;;;18.14;100.00;101787.25;143722;595;47006;-74
2024/03/17 10:34:40;;;;;;;16.92;12.30;;;;;;;18.13;100.00;101788.31;143724;594;46009;-75
2024/03/17 10:37:15;;;;;;;20.62;15.85;;;;;;;18.16;100.00;101785.16;143725;584;47004;-73
2024/03/17 10:39:43;;;;;;;20.48;16.37;;;;;;;18.18;100.00;101786.59;143723;579;47010;-73
2024/03/17 10:42:17;;;;;;;20.10;15.07;;;;;;;18.16;100.00;101787.88;143722;608;47006;-73
2024/03/17 10:44:45;;;;;;;19.23;15.98;;;;;;;18.14;100.00;101785.34;143723;625;47008;-73
2024/03/17 10:47:26;;;;;;;18.92;15.10;;;;;;;18.10;100.00;101789.56;143727;623;47002;-74
2024/03/17 10:49:54;;;;;;;19.90;13.73;;;;;;;18.10;100.00;101786.84;143724;601;47010;-76
2024/03/17 10:52:22;;;;;;;17.87;12.50;;;;;;;18.12;100.00;101782.03;143722;595;47006;-76
2024/03/17 10:55:02;;;;;;;13.88;11.32;;;;;;;18.00;100.00;101778.38;143725;604;46008;-76
2024/03/17 10:57:58;;;;;;;15.95;12.35;;;;;;;17.81;100.00;101775.56;143725;639;47006;-77
2024/03/17 11:00:29;;;;;;;13.35;11.20;;;;;;;17.86;100.00;101772.19;143722;572;47012;-77
2024/03/17 11:02:56;;;;;;;10.52;9.32;;;;;;;17.80;100.00;101773.91;143721;582;47006;-74
2024/03/17 11:05:31;;;;;;;10.50;9.40;;;;;;;17.84;100.00;101771.56;143722;576;46008;-76
2024/03/17 11:08:01;;;;;;;9.90;8.60;;;;;;;17.79;100.00;101766.81;143724;576;47006;-72
2024/03/17 11:10:37;;;;;;;14.13;10.30;;;;;;;17.94;100.00;101752.91;143721;614;47012;-72
2024/03/17 11:13:04;;;;;;;19.30;14.38;;;;;;;18.00;100.00;101760.16;143721;624;47006;-75
2024/03/17 11:15:42;;;;;;;18.23;14.15;;;;;;;18.03;100.00;101762.44;143722;568;47008;-79
2024/03/17 11:18:30;;;;;;;14.57;12.37;;;;;;;17.98;100.00;101758.75;143724;579;47006;-73
2024/03/17 11:21:12;;;;;;;16.52;10.85;;;;;;;17.93;100.00;101761.25;143722;584;47012;-75
2024/03/17 11:23:39;;;;;;;17.90;14.13;;;;;;;18.07;100.00;101748.41;143723;605;47006;-74
2024/03/17 11:26:06;;;;;;;12.27;10.55;;;;;;;18.09;100.00;101749.03;143723;573;47009;-73
2024/03/17 11:29:06;;;;;;;24.80;19.33;;;;;;;18.19;100.00;101746.63;143728;604;46024;-70
2024/03/17 11:31:55;;;;;;;22.70;15.77;;;;;;;18.36;100.00;101748.75;143725;588;46012;-72
2024/03/17 11:34:33;;;;;;;17.37;13.52;;;;;;;18.55;100.00;101750.41;143722;573;47004;-73
2024/03/17 11:37:01;;;;;;;15.15;12.73;;;;;;;18.70;100.00;101741.87;143723;617;47008;-74
2024/03/17 11:39:57;;;;;;;12.68;10.00;;;;;;;18.79;100.00;101739.69;143725;596;47006;-73
2024/03/17 11:42:26;;;;;;;14.60;12.25;;;;;;;18.70;100.00;101733.72;143722;589;47013;-72
2024/03/17 11:45:01;;;;;;;15.70;10.65;;;;;;;18.82;100.00;101731.06;143718;631;49006;-74
2024/03/17 11:47:40;;;;;;;13.75;11.50;;;;;;;18.96;100.00;101730.91;143725;603;46923;-72
2024/03/17 11:50:10;;;;;;;17.77;14.27;;;;;;;19.07;100.00;101721.94;143724;584;47006;-73
2024/03/17 11:52:37;;;;;;;19.80;15.48;;;;;;;19.13;100.00;101715.59;143722;640;47012;-73
2024/03/17 11:55:04;;;;;;;17.98;14.32;;;;;;;19.24;100.00;101724.87;143722;567;47005;-74
2024/03/17 11:57:30;;;;;;;18.75;16.23;;;;;;;19.43;100.00;101703.81;143726;594;46008;-70
2024/03/17 11:59:57;;;;;;;18.08;15.38;;;;;;;19.50;100.00;101710.00;143725;681;47006;-71
2024/03/17 12:02:28;;;;;;;18.30;15.80;;;;;;;19.66;100.00;101704.91;143724;611;46012;-71
2024/03/17 12:04:57;;;;;;;15.50;13.02;;;;;;;19.91;100.00;101699.28;143724;607;47006;-73
2024/03/17 12:07:27;;;;;;;17.08;14.15;;;;;;;19.99;100.00;101704.37;143723;592;47922;-72
2024/03/17 12:09:57;;;;;;;15.18;13.50;;;;;;;20.22;100.00;101705.41;143724;588;47004;-76
2024/03/17 12:12:37;;;;;;;18.67;13.50;;;;;;;20.22;100.00;101693.69;143725;600;47010;-72
2024/03/17 12:15:16;;;;;;;18.37;15.10;;;;;;;20.33;100.00;101698.28;143722;568;47006;-72
2024/03/17 12:17:42;;;;;;;16.95;12.98;;;;;;;20.53;100.00;101688.84;143722;573;47008;-71
2024/03/17 12:20:19;;;;;;;10.73;8.52;;;;;;;20.68;100.00;101689.16;143722;577;47004;-71
2024/03/17 12:22:46;;;;;;;13.57;10.13;;;;;;;20.53;100.00;101691.59;143725;752;47012;-71
2024/03/17 12:25:19;;;;;;;10.98;9.02;;;;;;;20.76;100.00;101679.78;143722;588;47004;-70
2024/03/17 12:27:48;;;;;;;11.07;9.02;;;;;;;20.91;100.00;101679.25;143724;986;47006;-71
2024/03/17 12:30:15;;;;;;;11.80;9.40;;;;;;;20.80;100.00;101680.97;143722;566;47002;-71
2024/03/17 12:32:42;;;;;;;10.27;7.72;;;;;;;20.70;100.00;101683.47;143726;738;47008;-71
2024/03/17 12:35:26;;;;;;;8.65;6.97;;;;;;;20.87;100.00;101675.34;143722;569;47004;-71
2024/03/17 12:37:52;;;;;;;7.20;6.28;;;;;;;21.03;100.00;101679.19;143726;947;46006;-72
2024/03/17 12:40:21;;;;;;;6.93;6.18;;;;;;;21.01;100.00;101673.16;143725;581;47002;-72
2024/03/17 12:42:52;;;;;;;6.78;5.12;;;;;;;20.88;100.00;101666.09;143725;979;47008;-71
2024/03/17 12:45:22;;;;;;;11.60;7.35;;;;;;;20.98;100.00;101666.28;143723;628;47004;-72
2024/03/17 12:47:50;;;;;;;7.12;5.53;;;;;;;20.88;100.00;101656.00;143723;567;47006;-72
2024/03/17 12:50:17;;;;;;;9.73;8.73;;;;;;;20.83;100.00;101657.78;143724;985;47002;-71
2024/03/17 12:52:55;;;;;;;5.82;5.00;;;;;;;21.01;100.00;101659.50;143723;827;47919;-72
2024/03/17 13:01:06;;;;;;;6.12;4.97;;;;;;;21.12;100.00;101642.19;143724;687;47006;-73
2024/03/17 13:03:36;;;;;;;5.47;3.85;;;;;;;21.25;100.00;101649.25;143754;573;46009;-73
2024/03/17 13:06:09;;;;;;;6.93;5.10;;;;;;;21.05;100.00;101645.09;143750;915;46004;-74
2024/03/17 13:08:36;;;;;;;4.90;3.92;;;;;;;20.76;100.00;101636.09;143753;657;46006;-73
2024/03/17 13:11:03;;;;;;;4.90;3.53;;;;;;;20.49;100.00;101642.12;143753;986;46002;-75
2024/03/17 13:13:30;;;;;;;5.55;4.18;;;;;;;20.41;100.00;101635.16;143744;567;46008;-75
2024/03/17 13:15:56;;;;;;;6.50;5.30;;;;;;;20.75;100.00;101637.16;143730;597;47004;-74
2024/03/17 13:18:23;;;;;;;9.00;7.40;;;;;;;20.76;100.00;101633.37;143730;711;47006;-74
2024/03/17 13:20:49;;;;;;;6.43;5.82;;;;;;;20.74;100.00;101635.47;143734;985;47002;-76
2024/03/17 13:23:16;;;;;;;5.60;5.10;;;;;;;20.51;100.00;101641.88;143733;582;46010;-76
2024/03/17 13:25:44;;;;;;;5.75;5.15;;;;;;;20.51;100.00;101645.44;143731;838;47004;-74